• Join FlightAware (Why Join?)
  • Login
  • US Flag 
09:28PM EDT


 

Airport Tracker/Info


-or-


 

Live Flight TrackerFlight Track Log ✈ SWA232 ✈ 06-Oct-2013 ✈ KMDW - KPVD

Flight Track Log - Related Links

Times and Time Zones

All times are in EDT time to prevent confusion due to time zone crossing. See the SWA232 flight status page for this flight to view local times or setup timezone preferences in your user account.

Time Position Orientation Groundspeed Altitude Reporting Facility
EDT Latitude Longitude Course Direction KTS MPH feet Rate Location/Type
10:22PM 41.8130 -87.7720 13° North 198 228 2,600  Level FlightAware
10:23PM 41.8200 -87.7670 28° Northeast 221 254 2,600 240 Level FlightAware
10:23PM 41.8300 -87.7510 50° Northeast 264 304 2,700 840 Climbing FlightAware
10:23PM 41.8360 -87.7260 72° East 275 316 3,000 1,200 Climbing FlightAware
10:23PM 41.8360 -87.7210 90° East 278 320 3,100 2,040 Climbing FlightAware
10:24PM 41.8330 -87.6720 95° East 285 328 4,100 2,400 Climbing FlightAware
10:24PM 41.8290 -87.6450 101° East 284 327 4,800 3,000 Climbing FlightAware
10:24PM 41.8290 -87.6180 90° East 289 333 5,600 3,240 Climbing FlightAware
10:25PM 41.8300 -87.5710 88° East 297 342 7,100 3,480 Climbing FlightAware
10:25PM 41.8320 -87.5330 86° East 298 343 8,300 3,360 Climbing FlightAware
10:25PM 41.8290 -87.4910 95° East 299 344 9,600 3,300 Climbing FlightAware
10:26PM 41.8200 -87.4320 102° East 300 345 11,400 2,700 Climbing FlightAware
10:26PM 41.8150 -87.3770 97° East 333 383 12,300 1,800 Climbing FlightAware
10:27PM 41.8210 -87.2960 84° East 370 426 13,400 2,220 Climbing FlightAware
10:27PM 41.8270 -87.2160 84° East 376 433 15,000 2,760 Climbing FlightAware
10:28PM 41.8330 -87.1290 85° East 383 441 16,700 2,520 Climbing FlightAware
10:29PM 41.8380 -87.0540 85° East 395 455 17,900 2,340 Climbing FlightAware
10:29PM 41.8440 -86.9680 85° East 403 464 19,300 2,280 Climbing FlightAware
10:30PM 41.8510 -86.8790 84° East 405 466 20,700 2,220 Climbing FlightAware
10:30PM 41.8570 -86.7850 85° East 410 472 22,100 2,040 Climbing FlightAware
10:31PM 41.8630 -86.7000 85° East 418 481 23,100 1,680 Climbing FlightAware
10:31PM 41.8680 -86.6110 86° East 430 495 24,000 1,740 Climbing FlightAware
10:32PM 41.8750 -86.5110 85° East 434 499 25,200 1,740 Climbing FlightAware
10:33PM 41.8810 -86.4130 85° East 439 505 26,200 1,380 Climbing FlightAware
10:33PM 41.8870 -86.3270 85° East 451 519 26,800 840 Climbing FlightAware
10:34PM 41.8930 -86.2200 86° East 470 541 27,200 960 Climbing FlightAware
10:34PM 41.9000 -86.1140 85° East 478 550 28,000 1,380 Climbing FlightAware
10:35PM 41.9060 -86.0140 85° East 480 552 28,900 1,500 Climbing FlightAware
10:36PM 41.9120 -85.9160 85° East 480 552 29,700 1,440 Climbing FlightAware
10:36PM 41.9190 -85.8030 85° East 481 554 30,600 1,440 Climbing FlightAware
10:37PM 41.9240 -85.7060 86° East 480 552 31,400 1,200 Climbing FlightAware
10:37PM 41.9300 -85.6020 86° East 483 556 32,000 900 Climbing FlightAware
10:38PM 41.9360 -85.5020 85° East 489 563 32,500 1,140 Climbing FlightAware
10:39PM 41.9420 -85.3880 86° East 485 558 33,400 1,380 Climbing FlightAware
10:39PM 41.9480 -85.2830 86° East 479 551 34,200 1,200 Climbing FlightAware
10:40PM 41.9510 -85.1770 88° East 466 536 34,900 1,020 Climbing FlightAware
10:40PM 41.9510 -85.0890 90° East 465 535 35,400 720 Climbing FlightAware
10:41PM 41.9510 -84.9880 90° East 471 542 35,700 360 Climbing FlightAware
10:41PM 41.9500 -84.8740 91° East 480 552 35,900 420 Climbing FlightAware
10:42PM 41.9490 -84.7530 91° East 482 555 36,300 780 Climbing FlightAware
10:43PM 41.9480 -84.6490 91° East 479 551 36,900 600 Climbing FlightAware
10:43PM 41.9480 -84.5420 90° East 479 551 37,000 60 Climbing FlightAware
10:44PM 41.9470 -84.4450 91° East 479 551 37,000  Level FlightAware
10:45PM 41.9460 -84.3260 91° East 478 550 37,000  Level FlightAware
10:45PM 41.9450 -84.2320 91° East 478 550 37,000  Level FlightAware
10:46PM 41.9440 -84.1250 91° East 477 549 37,000  Level FlightAware
10:46PM 41.9430 -84.0180 91° East 476 548 37,000  Level FlightAware
10:47PM 41.9410 -83.9140 91° East 475 547 37,000  Level FlightAware
10:47PM 41.9400 -83.8150 91° East 474 545 37,000  Level FlightAware
10:48PM 41.9380 -83.7090 91° East 474 545 37,000  Level FlightAware
10:49PM 41.9370 -83.6020 91° East 475 547 37,000  Level FlightAware
10:49PM 41.9350 -83.5060 92° East 478 550 37,000  Level FlightAware
10:50PM 41.9340 -83.4110 91° East 483 556 37,000  Level FlightAware
10:50PM 41.9340 -83.3310 90° East 484 557 37,000  Level FlightAware
10:51PM 41.9340 -83.2050 90° East 483 556 37,000  Level FlightAware
10:52PM 41.9330 -83.0940 91° East 482 555 37,000  Level FlightAware
10:52PM 41.9320 -82.9950 91° East 481 554 37,000  Level FlightAware
10:53PM 41.9310 -82.8950 91° East 481 554 37,000  Level FlightAware
10:53PM 41.9300 -82.7740 91° East 480 552 37,000  Level FlightAware
10:54PM 41.9290 -82.6760 91° East 479 551 37,000  Level FlightAware
10:55PM 41.9280 -82.5470 91° East 479 551 37,000  Level FlightAware
10:55PM 41.9270 -82.4410 91° East 481 554 37,000  Level FlightAware
10:56PM 41.9250 -82.3210 91° East 484 557 37,000  Level FlightAware
10:56PM 41.9240 -82.2140 91° East 485 558 37,000  Level FlightAware
10:57PM 41.9220 -82.1010 91° East 485 558 37,000  Level FlightAware
10:58PM 41.9200 -81.9750 91° East 485 558 37,000  Level FlightAware
10:58PM 41.9180 -81.8770 92° East 485 558 37,000  Level FlightAware
10:59PM 41.9240 -81.7680 86° East 503 579 37,000  Level FlightAware
10:59PM 41.9370 -81.6560 81° East 504 580 37,000  Level FlightAware
11:00PM 41.9480 -81.5570 81° East 503 579 37,000  Level FlightAware
11:01PM 41.9600 -81.4500 81° East 504 580 37,000  Level FlightAware
11:01PM 41.9730 -81.3290 82° East 504 580 37,000  Level FlightAware
11:02PM 41.9830 -81.2310 82° East 504 580 37,000  Level FlightAware
11:02PM 41.9950 -81.1190 82° East 505 581 37,000  Level FlightAware
11:03PM 42.0070 -81.0070 82° East 506 582 37,000  Level FlightAware
11:04PM 42.0190 -80.8970 82° East 505 581 37,000  Level FlightAware
11:04PM 42.0280 -80.8080 82° East 505 581 37,000  Level FlightAware
11:05PM 42.0390 -80.6980 82° East 505 581 37,000  Level FlightAware
11:05PM 42.0530 -80.5630 82° East 505 581 37,000  Level FlightAware
11:06PM 42.0650 -80.4460 82° East 505 581 37,000  Level FlightAware
11:07PM 42.0750 -80.3370 83° East 505 581 37,000  Level FlightAware
11:07PM 42.0870 -80.2200 82° East 506 582 37,000  Level FlightAware
11:08PM 42.0960 -80.1260 83° East 507 583 37,000  Level FlightAware
11:08PM 42.1070 -80.0150 82° East 505 581 37,000  Level FlightAware
11:09PM 42.1160 -79.9200 83° East 502 578 37,000  Level FlightAware
11:09PM 42.1270 -79.8010 83° East 499 574 37,000  Level FlightAware
11:10PM 42.1360 -79.7070 83° East 498 573 37,000  Level FlightAware
11:11PM 42.1460 -79.5960 83° East 498 573 37,000  Level FlightAware
11:11PM 42.1570 -79.4750 83° East 497 572 37,000  Level FlightAware
11:12PM 42.1650 -79.3840 83° East 495 570 37,000  Level FlightAware
11:12PM 42.1750 -79.2760 83° East 494 568 37,000  Level FlightAware
11:13PM 42.1850 -79.1550 84° East 493 567 37,000  Level FlightAware
11:13PM 42.1960 -79.0640 81° East 496 571 37,000  Level FlightAware
11:14PM 42.2090 -78.9610 80° East 495 570 37,000  Level FlightAware
11:15PM 42.2230 -78.8500 80° East 493 567 37,000  Level FlightAware
11:15PM 42.2370 -78.7450 80° East 495 570 37,000  Level FlightAware
11:16PM 42.2520 -78.6240 80° East 495 570 37,000  Level FlightAware
11:16PM 42.2630 -78.5320 81° East 495 570 37,000  Level FlightAware
11:17PM 42.2760 -78.4250 81° East 495 570 37,000  Level FlightAware
11:18PM 42.2890 -78.3190 81° East 495 570 37,000  Level FlightAware
11:18PM 42.3040 -78.1980 80° East 495 570 37,000  Level FlightAware
11:19PM 42.3150 -78.1060 81° East 494 568 37,000  Level FlightAware
11:19PM 42.3280 -78.0010 80° East 493 567 37,000  Level FlightAware
11:20PM 42.3400 -77.8970 81° East 494 568 37,000  Level FlightAware
11:20PM 42.3530 -77.7870 81° East 495 570 37,000  Level FlightAware
11:21PM 42.3650 -77.6860 81° East 494 568 37,000  Level FlightAware
11:22PM 42.3790 -77.5600 81° East 493 567 37,000  Level FlightAware
11:22PM 42.3900 -77.4690 81° East 493 567 37,000  Level FlightAware
11:23PM 42.4020 -77.3630 81° East 495 570 37,000  Level FlightAware
11:23PM 42.4140 -77.2530 82° East 495 570 37,000  Level FlightAware
11:24PM 42.4260 -77.1490 81° East 495 570 37,000  Level FlightAware
11:25PM 42.4380 -77.0410 81° East 495 570 37,000  Level FlightAware
11:25PM 42.4510 -76.9210 82° East 495 570 37,000  Level FlightAware
11:26PM 42.4610 -76.8270 82° East 496 571 37,000  Level FlightAware
11:26PM 42.4720 -76.7230 82° East 496 571 37,000  Level FlightAware
11:27PM 42.4840 -76.6130 82° East 495 570 37,000  Level FlightAware
11:28PM 42.4960 -76.5040 81° East 496 571 37,000  Level FlightAware
11:28PM 42.5070 -76.3970 82° East 495 570 37,000  Level FlightAware
11:29PM 42.5040 -76.2920 92° East 475 547 37,000  Level FlightAware
11:29PM 42.4880 -76.2420 113° Southeast 460 529 37,000  Level FlightAware
11:30PM 42.4430 -76.1420 121° Southeast 458 527 37,000  Level FlightAware
11:30PM 42.4050 -76.0580 121° Southeast 460 529 37,000  Level FlightAware
11:31PM 42.3740 -75.9900 122° Southeast 461 531 37,000  Level FlightAware
11:31PM 42.3320 -75.8990 122° Southeast 461 531 37,000  Level FlightAware
11:32PM 42.2880 -75.8020 121° Southeast 464 534 37,000  Level FlightAware
11:33PM 42.2480 -75.7160 122° Southeast 467 537 37,000  Level FlightAware
11:33PM 42.2170 -75.6480 122° Southeast 468 539 37,000  Level FlightAware
11:34PM 42.1630 -75.5280 121° Southeast 476 548 37,000  Level FlightAware
11:34PM 42.1490 -75.4700 108° East 488 562 37,000  Level FlightAware
11:34PM 42.1440 -75.4100 96° East 497 572 37,000  Level FlightAware
11:35PM 42.1460 -75.3050 88° East 497 572 37,000  Level FlightAware
11:36PM 42.1480 -75.2020 88° East 495 570 37,000  Level FlightAware
11:36PM 42.1500 -75.0830 89° East 496 571 37,000 -540 Level FlightAware
11:37PM 42.1510 -74.9820 89° East 491 565 36,400 -1,920 Descending FlightAware
11:37PM 42.1530 -74.8550 89° East 488 562 34,700 -2,340 Descending FlightAware
11:38PM 42.1550 -74.7420 89° East 482 555 33,300 -1,680 Descending FlightAware
11:39PM 42.1560 -74.6410 89° East 468 539 32,700 -1,080 Descending FlightAware
11:39PM 42.1570 -74.5400 89° East 469 540 32,100 -1,020 Descending FlightAware
11:40PM 42.1580 -74.4380 89° East 469 540 31,500 -1,020 Descending FlightAware
11:40PM 42.1610 -74.3400 88° East 470 541 31,000 -1,020 Descending FlightAware
11:41PM 42.1710 -74.2390 82° East 467 537 30,400 -1,020 Descending FlightAware
11:42PM 42.1800 -74.1350 83° East 462 532 29,800 -1,080 Descending FlightAware
11:42PM 42.1900 -74.0320 83° East 458 527 29,100 -1,080 Descending FlightAware
11:43PM 42.1990 -73.9410 82° East 454 522 28,600 -1,020 Descending FlightAware
11:43PM 42.2070 -73.8450 84° East 450 518 28,000 -1,020 Descending FlightAware
11:44PM 42.2160 -73.7440 83° East 444 511 27,400 -1,080 Descending FlightAware
11:44PM 42.2250 -73.6490 83° East 438 504 26,800 -1,080 Descending FlightAware
11:45PM 42.2330 -73.5560 83° East 434 499 26,200 -1,020 Descending FlightAware
11:46PM 42.2420 -73.4580 83° East 429 494 25,600 -1,200 Descending FlightAware
11:46PM 42.2490 -73.3760 83° East 425 489 24,900 -1,560 Descending FlightAware
11:47PM 42.2570 -73.2810 83° East 422 486 23,900 -1,680 Descending FlightAware
11:47PM 42.2650 -73.1840 84° East 414 476 22,900 -1,620 Descending FlightAware
11:48PM 42.2590 -73.1360 100° East 401 461 22,400 -1,500 Descending FlightAware
11:48PM 42.2450 -73.1040 121° Southeast 389 448 22,000 -1,680 Descending FlightAware
11:49PM 42.2040 -73.0470 134° Southeast 379 436 21,100 -1,920 Descending FlightAware
11:49PM 42.1600 -72.9870 135° Southeast 378 435 19,900 -1,800 Descending FlightAware
11:50PM 42.1140 -72.9240 135° Southeast 370 426 19,000 -840 Descending FlightAware
11:50PM 42.0780 -72.8750 135° Southeast 364 419 19,000  Level FlightAware
11:51PM 42.0310 -72.8100 134° Southeast 360 414 19,000  Level FlightAware
11:51PM 41.9920 -72.7580 135° Southeast 359 413 19,000  Level FlightAware
11:52PM 41.9490 -72.6990 134° Southeast 360 414 19,000 -300 Level FlightAware
11:53PM 41.9150 -72.6420 129° Southeast 365 420 18,700 -1,200 Descending FlightAware
11:53PM 41.8840 -72.5740 121° Southeast 368 423 17,700 -1,680 Descending FlightAware
11:54PM 41.8650 -72.4950 108° East 365 420 16,700 -1,620 Descending FlightAware
11:54PM 41.8490 -72.4280 108° East 359 413 15,900 -1,440 Descending FlightAware
11:55PM 41.8290 -72.3540 110° East 343 395 15,100 -1,320 Descending FlightAware
11:56PM 41.8050 -72.2870 116° Southeast 335 386 14,300 -1,860 Descending FlightAware
11:56PM 41.7790 -72.2180 117° Southeast 332 382 12,900 -2,760 Descending FlightAware
11:57PM 41.7570 -72.1540 115° Southeast 350 403 11,100 -1,860 Descending FlightAware
11:57PM 41.7330 -72.0870 116° Southeast 321 369 10,800 -840 Descending FlightAware
11:58PM 41.7140 -72.0330 115° Southeast 298 343 10,200 -1,380 Descending FlightAware
11:58PM 41.6980 -71.9920 118° Southeast 292 336 9,500 -1,500 Descending FlightAware
11:59PM 41.6870 -71.9610 115° Southeast 284 327 9,100 -1,560 Descending FlightAware
11:59PM 41.6760 -71.9300 115° Southeast 279 321 8,500 -1,920 Descending FlightAware
11:59PM 41.6620 -71.8920 116° Southeast 279 321 7,700 -1,920 Descending FlightAware
12:00AM 41.6510 -71.8620 116° Southeast 278 320 7,100 -1,680 Descending FlightAware
12:00AM 41.6440 -71.8420 115° Southeast 275 316 6,800 -1,740 Descending FlightAware
12:00AM 41.6330 -71.8130 117° Southeast 272 313 6,200 -1,740 Descending FlightAware
12:01AM 41.6200 -71.7740 114° Southeast 271 312 5,500 -1,620 Descending FlightAware
12:01AM 41.6110 -71.7510 118° Southeast 268 308 5,100 -1,620 Descending FlightAware
12:01AM 41.5970 -71.7130 116° Southeast 261 300 4,400 -1,740 Descending FlightAware
12:02AM 41.5870 -71.6850 116° Southeast 259 298 3,800 -900 Descending FlightAware
12:02AM 41.5670 -71.6320 117° Southeast 257 296 3,500 -900 Descending FlightAware
12:03AM 41.5594 -71.5828 117° Southeast 252 290 2,600 -960 Descending Boston Center
12:04AM 41.6089 -71.5239 42° Northeast 202 232 2,000 -540 Descending Boston Center
12:05AM 41.6503 -71.4900 31° Northeast 183 211 1,600 -660 Descending Boston Center
12:06AM 41.6917 -71.4558 32° Northeast 162 186 700 8,700 Descending Boston Center
12:07AM 41.7186 -71.4333 32° Northeast 157 181 19,000 9,120 Climbing Boston Center
12:08AM 41.7600 -71.4019 29° Northeast 157 181 19,000  Level Boston Center